sensor_id;sensor_type;location;lat;lon;timestamp;P1;durP1;ratioP1;P2;durP2;ratioP2
9815;SDS011;4947;44.526;11.360;2022-09-29T00:00:48;8.35;;;5.32;;
9815;SDS011;4947;44.526;11.360;2022-09-29T00:03:16;11.85;;;5.43;;
9815;SDS011;4947;44.526;11.360;2022-09-29T00:05:48;10.73;;;5.45;;
9815;SDS011;4947;44.526;11.360;2022-09-29T00:08:16;7.80;;;5.38;;
9815;SDS011;4947;44.526;11.360;2022-09-29T00:10:44;9.13;;;5.32;;
9815;SDS011;4947;44.526;11.360;2022-09-29T00:13:13;12.57;;;5.88;;
9815;SDS011;4947;44.526;11.360;2022-09-29T00:15:41;13.20;;;5.68;;
9815;SDS011;4947;44.526;11.360;2022-09-29T00:18:11;11.80;;;5.40;;
9815;SDS011;4947;44.526;11.360;2022-09-29T00:20:38;14.35;;;5.57;;
9815;SDS011;4947;44.526;11.360;2022-09-29T00:23:06;12.25;;;5.57;;
9815;SDS011;4947;44.526;11.360;2022-09-29T00:25:34;14.25;;;5.45;;
9815;SDS011;4947;44.526;11.360;2022-09-29T00:28:01;9.77;;;5.55;;
9815;SDS011;4947;44.526;11.360;2022-09-29T00:30:28;13.88;;;5.68;;
9815;SDS011;4947;44.526;11.360;2022-09-29T00:32:56;8.75;;;5.32;;
9815;SDS011;4947;44.526;11.360;2022-09-29T00:35:25;9.27;;;6.40;;
9815;SDS011;4947;44.526;11.360;2022-09-29T00:37:52;11.88;;;5.78;;
9815;SDS011;4947;44.526;11.360;2022-09-29T00:40:20;10.98;;;5.70;;
9815;SDS011;4947;44.526;11.360;2022-09-29T00:42:48;9.05;;;5.20;;
9815;SDS011;4947;44.526;11.360;2022-09-29T00:45:18;10.88;;;5.57;;
9815;SDS011;4947;44.526;11.360;2022-09-29T00:47:52;11.73;;;5.72;;
9815;SDS011;4947;44.526;11.360;2022-09-29T00:50:31;11.90;;;6.10;;
9815;SDS011;4947;44.526;11.360;2022-09-29T00:53:08;10.27;;;5.18;;
9815;SDS011;4947;44.526;11.360;2022-09-29T00:55:39;14.32;;;5.72;;
9815;SDS011;4947;44.526;11.360;2022-09-29T00:58:11;14.57;;;6.25;;
9815;SDS011;4947;44.526;11.360;2022-09-29T01:00:46;14.75;;;5.78;;
9815;SDS011;4947;44.526;11.360;2022-09-29T01:03:15;9.98;;;6.03;;
9815;SDS011;4947;44.526;11.360;2022-09-29T01:05:48;9.88;;;5.40;;
9815;SDS011;4947;44.526;11.360;2022-09-29T01:08:19;12.95;;;6.50;;
9815;SDS011;4947;44.526;11.360;2022-09-29T01:10:50;11.10;;;5.40;;
9815;SDS011;4947;44.526;11.360;2022-09-29T01:13:19;17.45;;;7.60;;
9815;SDS011;4947;44.526;11.360;2022-09-29T01:15:48;8.85;;;6.15;;
9815;SDS011;4947;44.526;11.360;2022-09-29T01:18:16;11.88;;;6.75;;
9815;SDS011;4947;44.526;11.360;2022-09-29T01:20:46;10.55;;;6.15;;
9815;SDS011;4947;44.526;11.360;2022-09-29T01:26:47;11.35;;;7.13;;
9815;SDS011;4947;44.526;11.360;2022-09-29T01:35:47;13.82;;;6.60;;
9815;SDS011;4947;44.526;11.360;2022-09-29T01:41:13;7.95;;;5.65;;
9815;SDS011;4947;44.526;11.360;2022-09-29T01:43:52;16.88;;;6.55;;
9815;SDS011;4947;44.526;11.360;2022-09-29T01:46:23;10.55;;;6.03;;
9815;SDS011;4947;44.526;11.360;2022-09-29T01:49:02;16.25;;;7.70;;
9815;SDS011;4947;44.526;11.360;2022-09-29T01:51:34;9.82;;;7.00;;
9815;SDS011;4947;44.526;11.360;2022-09-29T01:54:08;14.60;;;7.25;;
9815;SDS011;4947;44.526;11.360;2022-09-29T01:56:41;10.13;;;6.70;;
9815;SDS011;4947;44.526;11.360;2022-09-29T01:59:13;10.38;;;6.45;;
9815;SDS011;4947;44.526;11.360;2022-09-29T02:01:44;12.40;;;6.93;;
9815;SDS011;4947;44.526;11.360;2022-09-29T02:04:17;12.52;;;6.93;;
9815;SDS011;4947;44.526;11.360;2022-09-29T02:06:48;10.43;;;6.50;;
9815;SDS011;4947;44.526;11.360;2022-09-29T02:09:23;10.85;;;5.85;;
9815;SDS011;4947;44.526;11.360;2022-09-29T02:11:55;13.85;;;7.85;;
9815;SDS011;4947;44.526;11.360;2022-09-29T02:14:27;11.68;;;6.82;;
9815;SDS011;4947;44.526;11.360;2022-09-29T02:16:59;11.80;;;6.88;;
9815;SDS011;4947;44.526;11.360;2022-09-29T02:19:35;14.68;;;6.32;;
9815;SDS011;4947;44.526;11.360;2022-09-29T02:22:05;13.23;;;6.45;;
9815;SDS011;4947;44.526;11.360;2022-09-29T02:24:33;10.10;;;6.85;;
9815;SDS011;4947;44.526;11.360;2022-09-29T02:27:00;13.57;;;7.00;;
9815;SDS011;4947;44.526;11.360;2022-09-29T02:29:28;15.30;;;7.28;;
9815;SDS011;4947;44.526;11.360;2022-09-29T02:31:57;20.00;;;8.77;;
9815;SDS011;4947;44.526;11.360;2022-09-29T02:34:27;13.23;;;7.72;;
9815;SDS011;4947;44.526;11.360;2022-09-29T02:37:00;10.93;;;7.82;;
9815;SDS011;4947;44.526;11.360;2022-09-29T02:39:39;12.65;;;7.55;;
9815;SDS011;4947;44.526;11.360;2022-09-29T02:42:14;16.55;;;7.90;;
9815;SDS011;4947;44.526;11.360;2022-09-29T02:47:48;14.65;;;7.45;;
9815;SDS011;4947;44.526;11.360;2022-09-29T02:50:31;11.25;;;8.13;;
9815;SDS011;4947;44.526;11.360;2022-09-29T02:53:19;15.25;;;8.65;;
9815;SDS011;4947;44.526;11.360;2022-09-29T02:55:56;14.35;;;9.10;;
9815;SDS011;4947;44.526;11.360;2022-09-29T02:58:31;13.70;;;7.93;;
9815;SDS011;4947;44.526;11.360;2022-09-29T03:01:03;14.18;;;8.23;;
9815;SDS011;4947;44.526;11.360;2022-09-29T03:03:32;16.35;;;9.25;;
9815;SDS011;4947;44.526;11.360;2022-09-29T03:06:00;19.33;;;9.85;;
9815;SDS011;4947;44.526;11.360;2022-09-29T03:08:30;19.08;;;10.20;;
9815;SDS011;4947;44.526;11.360;2022-09-29T03:10:57;20.40;;;10.50;;
9815;SDS011;4947;44.526;11.360;2022-09-29T03:13:25;16.73;;;11.27;;
9815;SDS011;4947;44.526;11.360;2022-09-29T03:15:52;22.05;;;11.75;;
9815;SDS011;4947;44.526;11.360;2022-09-29T03:18:19;18.27;;;11.88;;
9815;SDS011;4947;44.526;11.360;2022-09-29T03:20:48;25.02;;;12.57;;
9815;SDS011;4947;44.526;11.360;2022-09-29T03:23:16;24.83;;;13.70;;
9815;SDS011;4947;44.526;11.360;2022-09-29T03:25:46;19.38;;;12.55;;
9815;SDS011;4947;44.526;11.360;2022-09-29T03:28:14;24.60;;;13.35;;
9815;SDS011;4947;44.526;11.360;2022-09-29T03:30:42;23.13;;;11.93;;
9815;SDS011;4947;44.526;11.360;2022-09-29T03:33:14;17.88;;;12.75;;
9815;SDS011;4947;44.526;11.360;2022-09-29T03:35:42;24.17;;;14.27;;
9815;SDS011;4947;44.526;11.360;2022-09-29T03:38:10;26.20;;;14.65;;
9815;SDS011;4947;44.526;11.360;2022-09-29T03:40:37;24.92;;;13.85;;
9815;SDS011;4947;44.526;11.360;2022-09-29T03:43:06;24.00;;;13.20;;
9815;SDS011;4947;44.526;11.360;2022-09-29T03:45:34;26.50;;;14.95;;
9815;SDS011;4947;44.526;11.360;2022-09-29T03:48:02;23.13;;;14.02;;
9815;SDS011;4947;44.526;11.360;2022-09-29T03:50:30;28.98;;;15.13;;
9815;SDS011;4947;44.526;11.360;2022-09-29T03:52:57;20.15;;;13.18;;
9815;SDS011;4947;44.526;11.360;2022-09-29T03:55:25;25.70;;;14.40;;
9815;SDS011;4947;44.526;11.360;2022-09-29T03:57:52;21.63;;;12.30;;
9815;SDS011;4947;44.526;11.360;2022-09-29T04:00:22;31.80;;;14.00;;
9815;SDS011;4947;44.526;11.360;2022-09-29T04:02:50;28.90;;;15.13;;
9815;SDS011;4947;44.526;11.360;2022-09-29T04:05:20;23.10;;;13.40;;
9815;SDS011;4947;44.526;11.360;2022-09-29T04:07:48;18.98;;;13.32;;
9815;SDS011;4947;44.526;11.360;2022-09-29T04:10:16;25.02;;;12.43;;
9815;SDS011;4947;44.526;11.360;2022-09-29T04:12:43;26.38;;;12.32;;
9815;SDS011;4947;44.526;11.360;2022-09-29T04:15:11;20.15;;;12.40;;
9815;SDS011;4947;44.526;11.360;2022-09-29T04:17:40;27.50;;;14.02;;
9815;SDS011;4947;44.526;11.360;2022-09-29T04:20:07;27.30;;;12.55;;
9815;SDS011;4947;44.526;11.360;2022-09-29T04:22:35;28.25;;;12.85;;
9815;SDS011;4947;44.526;11.360;2022-09-29T04:25:03;20.63;;;12.60;;
9815;SDS011;4947;44.526;11.360;2022-09-29T04:27:30;19.65;;;12.25;;
9815;SDS011;4947;44.526;11.360;2022-09-29T04:29:58;18.90;;;12.40;;
9815;SDS011;4947;44.526;11.360;2022-09-29T04:32:26;22.35;;;12.32;;
9815;SDS011;4947;44.526;11.360;2022-09-29T04:34:55;24.30;;;11.85;;
9815;SDS011;4947;44.526;11.360;2022-09-29T04:37:23;24.05;;;12.52;;
9815;SDS011;4947;44.526;11.360;2022-09-29T04:39:50;18.60;;;12.40;;
9815;SDS011;4947;44.526;11.360;2022-09-29T04:42:18;20.20;;;11.57;;
9815;SDS011;4947;44.526;11.360;2022-09-29T04:44:46;22.45;;;12.55;;
9815;SDS011;4947;44.526;11.360;2022-09-29T04:47:14;21.95;;;13.25;;
9815;SDS011;4947;44.526;11.360;2022-09-29T04:49:41;21.45;;;12.25;;
9815;SDS011;4947;44.526;11.360;2022-09-29T04:52:10;30.33;;;12.63;;
9815;SDS011;4947;44.526;11.360;2022-09-29T04:54:37;17.92;;;11.43;;
9815;SDS011;4947;44.526;11.360;2022-09-29T04:57:06;22.90;;;11.77;;
9815;SDS011;4947;44.526;11.360;2022-09-29T04:59:34;25.23;;;12.85;;
9815;SDS011;4947;44.526;11.360;2022-09-29T05:02:02;22.60;;;13.18;;
9815;SDS011;4947;44.526;11.360;2022-09-29T05:04:30;23.48;;;11.88;;
9815;SDS011;4947;44.526;11.360;2022-09-29T05:06:58;21.40;;;13.50;;
9815;SDS011;4947;44.526;11.360;2022-09-29T05:09:27;24.75;;;12.65;;
9815;SDS011;4947;44.526;11.360;2022-09-29T05:11:55;21.70;;;12.50;;
9815;SDS011;4947;44.526;11.360;2022-09-29T05:14:22;25.42;;;13.52;;
9815;SDS011;4947;44.526;11.360;2022-09-29T05:16:50;20.80;;;11.73;;
9815;SDS011;4947;44.526;11.360;2022-09-29T05:19:19;22.00;;;12.38;;
9815;SDS011;4947;44.526;11.360;2022-09-29T05:21:47;23.95;;;12.55;;
9815;SDS011;4947;44.526;11.360;2022-09-29T05:24:15;23.70;;;13.20;;
9815;SDS011;4947;44.526;11.360;2022-09-29T05:26:44;21.45;;;13.48;;
9815;SDS011;4947;44.526;11.360;2022-09-29T05:29:12;26.25;;;12.45;;
9815;SDS011;4947;44.526;11.360;2022-09-29T05:31:39;25.23;;;12.00;;
9815;SDS011;4947;44.526;11.360;2022-09-29T05:34:07;16.77;;;12.13;;
9815;SDS011;4947;44.526;11.360;2022-09-29T05:36:35;24.35;;;12.95;;
9815;SDS011;4947;44.526;11.360;2022-09-29T05:39:02;22.33;;;13.60;;
9815;SDS011;4947;44.526;11.360;2022-09-29T05:41:30;24.95;;;13.10;;
9815;SDS011;4947;44.526;11.360;2022-09-29T05:44:03;29.27;;;14.63;;
9815;SDS011;4947;44.526;11.360;2022-09-29T05:46:31;28.35;;;13.55;;
9815;SDS011;4947;44.526;11.360;2022-09-29T05:48:59;25.63;;;15.70;;
9815;SDS011;4947;44.526;11.360;2022-09-29T05:51:27;26.23;;;14.48;;
9815;SDS011;4947;44.526;11.360;2022-09-29T05:53:54;27.83;;;16.05;;
9815;SDS011;4947;44.526;11.360;2022-09-29T05:56:23;26.33;;;14.38;;
9815;SDS011;4947;44.526;11.360;2022-09-29T05:58:51;29.00;;;15.40;;
9815;SDS011;4947;44.526;11.360;2022-09-29T06:01:21;26.73;;;14.02;;
9815;SDS011;4947;44.526;11.360;2022-09-29T06:03:51;25.85;;;12.18;;
9815;SDS011;4947;44.526;11.360;2022-09-29T06:06:20;23.70;;;13.80;;
9815;SDS011;4947;44.526;11.360;2022-09-29T06:08:48;24.42;;;13.88;;
9815;SDS011;4947;44.526;11.360;2022-09-29T06:11:17;18.17;;;13.02;;
9815;SDS011;4947;44.526;11.360;2022-09-29T06:13:46;23.83;;;12.85;;
9815;SDS011;4947;44.526;11.360;2022-09-29T06:16:15;21.48;;;13.23;;
9815;SDS011;4947;44.526;11.360;2022-09-29T06:18:45;20.88;;;13.65;;
9815;SDS011;4947;44.526;11.360;2022-09-29T06:21:13;18.20;;;12.60;;
9815;SDS011;4947;44.526;11.360;2022-09-29T06:23:42;21.70;;;13.73;;
9815;SDS011;4947;44.526;11.360;2022-09-29T06:26:11;27.15;;;13.85;;
9815;SDS011;4947;44.526;11.360;2022-09-29T06:28:40;19.75;;;12.50;;
9815;SDS011;4947;44.526;11.360;2022-09-29T06:31:09;18.63;;;12.93;;
9815;SDS011;4947;44.526;11.360;2022-09-29T06:33:38;21.08;;;12.02;;
9815;SDS011;4947;44.526;11.360;2022-09-29T06:36:08;19.50;;;12.15;;
9815;SDS011;4947;44.526;11.360;2022-09-29T06:38:58;16.65;;;11.27;;
9815;SDS011;4947;44.526;11.360;2022-09-29T06:41:26;15.73;;;11.60;;
9815;SDS011;4947;44.526;11.360;2022-09-29T06:43:53;16.48;;;10.73;;
9815;SDS011;4947;44.526;11.360;2022-09-29T06:46:21;23.65;;;11.98;;
9815;SDS011;4947;44.526;11.360;2022-09-29T06:48:50;24.25;;;11.60;;
9815;SDS011;4947;44.526;11.360;2022-09-29T06:51:19;18.50;;;12.30;;
9815;SDS011;4947;44.526;11.360;2022-09-29T06:53:48;22.38;;;12.38;;
9815;SDS011;4947;44.526;11.360;2022-09-29T06:56:16;25.17;;;11.73;;
9815;SDS011;4947;44.526;11.360;2022-09-29T06:58:44;21.38;;;11.55;;
9815;SDS011;4947;44.526;11.360;2022-09-29T07:01:12;21.58;;;11.15;;
9815;SDS011;4947;44.526;11.360;2022-09-29T07:03:40;19.15;;;12.38;;
9815;SDS011;4947;44.526;11.360;2022-09-29T07:06:08;18.48;;;11.90;;
9815;SDS011;4947;44.526;11.360;2022-09-29T07:08:38;24.20;;;13.88;;
9815;SDS011;4947;44.526;11.360;2022-09-29T07:11:05;17.77;;;12.38;;
9815;SDS011;4947;44.526;11.360;2022-09-29T07:13:34;16.88;;;12.07;;
9815;SDS011;4947;44.526;11.360;2022-09-29T07:16:03;18.92;;;12.45;;
9815;SDS011;4947;44.526;11.360;2022-09-29T07:18:35;25.40;;;13.15;;
9815;SDS011;4947;44.526;11.360;2022-09-29T07:21:04;14.90;;;10.95;;
9815;SDS011;4947;44.526;11.360;2022-09-29T07:23:32;19.38;;;11.65;;
9815;SDS011;4947;44.526;11.360;2022-09-29T07:26:02;14.15;;;11.05;;
9815;SDS011;4947;44.526;11.360;2022-09-29T07:28:30;17.80;;;12.02;;
9815;SDS011;4947;44.526;11.360;2022-09-29T07:30:58;17.48;;;11.52;;
9815;SDS011;4947;44.526;11.360;2022-09-29T07:33:27;19.63;;;11.20;;
9815;SDS011;4947;44.526;11.360;2022-09-29T07:35:54;19.60;;;11.02;;
9815;SDS011;4947;44.526;11.360;2022-09-29T07:38:23;24.55;;;11.13;;
9815;SDS011;4947;44.526;11.360;2022-09-29T07:40:50;21.52;;;11.07;;
9815;SDS011;4947;44.526;11.360;2022-09-29T07:43:19;22.15;;;11.90;;
9815;SDS011;4947;44.526;11.360;2022-09-29T07:45:47;19.92;;;11.73;;
9815;SDS011;4947;44.526;11.360;2022-09-29T07:48:16;19.42;;;11.50;;
9815;SDS011;4947;44.526;11.360;2022-09-29T07:50:44;20.42;;;10.73;;
9815;SDS011;4947;44.526;11.360;2022-09-29T07:53:12;20.98;;;10.85;;
9815;SDS011;4947;44.526;11.360;2022-09-29T07:55:40;15.40;;;9.57;;
9815;SDS011;4947;44.526;11.360;2022-09-29T07:58:08;12.77;;;9.18;;
9815;SDS011;4947;44.526;11.360;2022-09-29T08:00:37;15.93;;;9.45;;
9815;SDS011;4947;44.526;11.360;2022-09-29T08:03:05;15.10;;;8.95;;
9815;SDS011;4947;44.526;11.360;2022-09-29T08:05:34;16.45;;;9.48;;
9815;SDS011;4947;44.526;11.360;2022-09-29T08:08:02;17.25;;;8.77;;
9815;SDS011;4947;44.526;11.360;2022-09-29T08:10:31;14.50;;;8.77;;
9815;SDS011;4947;44.526;11.360;2022-09-29T08:12:59;17.80;;;8.23;;
9815;SDS011;4947;44.526;11.360;2022-09-29T08:15:26;17.42;;;9.52;;
9815;SDS011;4947;44.526;11.360;2022-09-29T08:17:55;17.75;;;9.70;;
9815;SDS011;4947;44.526;11.360;2022-09-29T08:20:22;15.20;;;9.65;;
9815;SDS011;4947;44.526;11.360;2022-09-29T08:22:51;18.10;;;9.73;;
9815;SDS011;4947;44.526;11.360;2022-09-29T08:25:19;19.17;;;9.05;;
9815;SDS011;4947;44.526;11.360;2022-09-29T08:27:46;15.27;;;8.77;;
9815;SDS011;4947;44.526;11.360;2022-09-29T08:30:14;15.73;;;9.50;;
9815;SDS011;4947;44.526;11.360;2022-09-29T08:32:41;15.80;;;7.80;;
9815;SDS011;4947;44.526;11.360;2022-09-29T08:35:10;16.02;;;8.85;;
9815;SDS011;4947;44.526;11.360;2022-09-29T08:37:37;21.13;;;9.10;;
9815;SDS011;4947;44.526;11.360;2022-09-29T08:40:06;14.85;;;7.85;;
9815;SDS011;4947;44.526;11.360;2022-09-29T08:42:37;11.13;;;6.97;;
9815;SDS011;4947;44.526;11.360;2022-09-29T08:45:30;15.55;;;8.90;;
9815;SDS011;4947;44.526;11.360;2022-09-29T08:48:03;13.40;;;8.45;;
9815;SDS011;4947;44.526;11.360;2022-09-29T08:50:37;16.63;;;9.32;;
9815;SDS011;4947;44.526;11.360;2022-09-29T08:53:10;10.70;;;7.40;;
9815;SDS011;4947;44.526;11.360;2022-09-29T08:55:43;17.55;;;6.68;;
9815;SDS011;4947;44.526;11.360;2022-09-29T09:00:56;13.07;;;7.55;;
9815;SDS011;4947;44.526;11.360;2022-09-29T09:03:45;10.02;;;5.95;;
9815;SDS011;4947;44.526;11.360;2022-09-29T09:06:24;13.52;;;5.43;;
9815;SDS011;4947;44.526;11.360;2022-09-29T09:08:58;10.27;;;5.95;;
9815;SDS011;4947;44.526;11.360;2022-09-29T09:11:50;12.95;;;5.47;;
9815;SDS011;4947;44.526;11.360;2022-09-29T09:14:34;11.60;;;5.28;;
9815;SDS011;4947;44.526;11.360;2022-09-29T09:17:22;11.02;;;5.10;;
9815;SDS011;4947;44.526;11.360;2022-09-29T09:22:47;10.75;;;3.72;;
9815;SDS011;4947;44.526;11.360;2022-09-29T09:25:26;9.40;;;4.15;;
9815;SDS011;4947;44.526;11.360;2022-09-29T09:27:58;7.50;;;2.33;;
9815;SDS011;4947;44.526;11.360;2022-09-29T09:30:34;5.65;;;1.70;;
9815;SDS011;4947;44.526;11.360;2022-09-29T09:33:11;8.20;;;1.70;;
9815;SDS011;4947;44.526;11.360;2022-09-29T09:35:48;4.53;;;1.55;;
9815;SDS011;4947;44.526;11.360;2022-09-29T09:38:20;4.55;;;1.50;;
9815;SDS011;4947;44.526;11.360;2022-09-29T09:40:53;4.78;;;1.48;;
9815;SDS011;4947;44.526;11.360;2022-09-29T09:43:25;2.80;;;1.45;;
9815;SDS011;4947;44.526;11.360;2022-09-29T09:45:59;5.95;;;2.00;;
9815;SDS011;4947;44.526;11.360;2022-09-29T09:48:37;6.32;;;1.10;;
9815;SDS011;4947;44.526;11.360;2022-09-29T09:51:17;3.97;;;1.40;;
9815;SDS011;4947;44.526;11.360;2022-09-29T09:53:55;6.85;;;1.45;;
9815;SDS011;4947;44.526;11.360;2022-09-29T09:56:35;5.75;;;1.10;;
9815;SDS011;4947;44.526;11.360;2022-09-29T09:59:40;4.22;;;1.40;;
9815;SDS011;4947;44.526;11.360;2022-09-29T10:02:18;6.43;;;1.20;;
9815;SDS011;4947;44.526;11.360;2022-09-29T10:04:50;4.38;;;1.88;;
9815;SDS011;4947;44.526;11.360;2022-09-29T10:07:19;2.45;;;1.20;;
9815;SDS011;4947;44.526;11.360;2022-09-29T10:09:49;5.93;;;1.40;;
9815;SDS011;4947;44.526;11.360;2022-09-29T10:12:21;6.05;;;1.45;;
9815;SDS011;4947;44.526;11.360;2022-09-29T10:14:51;4.07;;;1.30;;
9815;SDS011;4947;44.526;11.360;2022-09-29T10:17:25;3.78;;;1.20;;
9815;SDS011;4947;44.526;11.360;2022-09-29T10:20:04;3.83;;;1.45;;
9815;SDS011;4947;44.526;11.360;2022-09-29T10:22:38;2.95;;;1.10;;
9815;SDS011;4947;44.526;11.360;2022-09-29T10:25:11;5.32;;;1.25;;
9815;SDS011;4947;44.526;11.360;2022-09-29T10:27:45;5.45;;;1.52;;
9815;SDS011;4947;44.526;11.360;2022-09-29T10:30:18;2.70;;;1.30;;
9815;SDS011;4947;44.526;11.360;2022-09-29T10:33:11;5.93;;;1.63;;
9815;SDS011;4947;44.526;11.360;2022-09-29T10:35:43;3.22;;;1.27;;
9815;SDS011;4947;44.526;11.360;2022-09-29T10:38:16;5.32;;;1.50;;
9815;SDS011;4947;44.526;11.360;2022-09-29T10:40:53;2.75;;;1.17;;
9815;SDS011;4947;44.526;11.360;2022-09-29T10:43:23;4.57;;;1.30;;
9815;SDS011;4947;44.526;11.360;2022-09-29T10:45:55;4.65;;;1.25;;
9815;SDS011;4947;44.526;11.360;2022-09-29T10:48:26;7.25;;;1.58;;
9815;SDS011;4947;44.526;11.360;2022-09-29T10:50:57;6.82;;;1.30;;
9815;SDS011;4947;44.526;11.360;2022-09-29T10:53:31;7.50;;;1.05;;
9815;SDS011;4947;44.526;11.360;2022-09-29T10:56:13;3.88;;;1.15;;
9815;SDS011;4947;44.526;11.360;2022-09-29T10:58:51;9.30;;;1.20;;
9815;SDS011;4947;44.526;11.360;2022-09-29T11:01:20;2.05;;;1.00;;
9815;SDS011;4947;44.526;11.360;2022-09-29T11:03:51;2.22;;;1.00;;
9815;SDS011;4947;44.526;11.360;2022-09-29T11:06:27;3.17;;;0.90;;
9815;SDS011;4947;44.526;11.360;2022-09-29T11:09:02;6.97;;;1.33;;
9815;SDS011;4947;44.526;11.360;2022-09-29T11:11:33;3.15;;;1.35;;
9815;SDS011;4947;44.526;11.360;2022-09-29T11:14:03;4.82;;;0.98;;
9815;SDS011;4947;44.526;11.360;2022-09-29T11:16:32;2.92;;;1.10;;
9815;SDS011;4947;44.526;11.360;2022-09-29T11:19:04;2.83;;;1.05;;
9815;SDS011;4947;44.526;11.360;2022-09-29T11:21:58;1.85;;;0.82;;
9815;SDS011;4947;44.526;11.360;2022-09-29T11:24:50;1.50;;;0.95;;
9815;SDS011;4947;44.526;11.360;2022-09-29T11:27:32;4.22;;;0.90;;
9815;SDS011;4947;44.526;11.360;2022-09-29T11:30:10;1.95;;;0.90;;
9815;SDS011;4947;44.526;11.360;2022-09-29T11:32:51;2.63;;;0.90;;
9815;SDS011;4947;44.526;11.360;2022-09-29T11:35:40;1.40;;;0.98;;
9815;SDS011;4947;44.526;11.360;2022-09-29T11:44:31;1.23;;;0.95;;
9815;SDS011;4947;44.526;11.360;2022-09-29T11:47:17;3.95;;;0.88;;
9815;SDS011;4947;44.526;11.360;2022-09-29T11:49:57;3.88;;;1.02;;
9815;SDS011;4947;44.526;11.360;2022-09-29T11:55:53;3.90;;;0.88;;
9815;SDS011;4947;44.526;11.360;2022-09-29T11:58:39;2.78;;;1.08;;
9815;SDS011;4947;44.526;11.360;2022-09-29T12:04:12;3.00;;;1.90;;
9815;SDS011;4947;44.526;11.360;2022-09-29T12:06:53;1.52;;;0.90;;
9815;SDS011;4947;44.526;11.360;2022-09-29T12:09:34;1.42;;;0.90;;
9815;SDS011;4947;44.526;11.360;2022-09-29T12:12:28;1.88;;;0.75;;
9815;SDS011;4947;44.526;11.360;2022-09-29T12:15:09;4.00;;;1.05;;
9815;SDS011;4947;44.526;11.360;2022-09-29T12:17:49;3.30;;;0.85;;
9815;SDS011;4947;44.526;11.360;2022-09-29T12:20:20;2.05;;;0.73;;
9815;SDS011;4947;44.526;11.360;2022-09-29T12:22:51;2.35;;;0.70;;
9815;SDS011;4947;44.526;11.360;2022-09-29T12:25:22;3.00;;;0.93;;
9815;SDS011;4947;44.526;11.360;2022-09-29T12:27:51;2.30;;;0.82;;
9815;SDS011;4947;44.526;11.360;2022-09-29T12:30:24;1.45;;;0.80;;
9815;SDS011;4947;44.526;11.360;2022-09-29T12:32:55;2.38;;;0.80;;
9815;SDS011;4947;44.526;11.360;2022-09-29T12:35:29;11.52;;;1.90;;
9815;SDS011;4947;44.526;11.360;2022-09-29T12:38:04;1.90;;;0.93;;
9815;SDS011;4947;44.526;11.360;2022-09-29T12:40:40;2.08;;;0.85;;
9815;SDS011;4947;44.526;11.360;2022-09-29T12:43:11;3.00;;;0.88;;
9815;SDS011;4947;44.526;11.360;2022-09-29T12:45:47;3.75;;;1.20;;
9815;SDS011;4947;44.526;11.360;2022-09-29T12:48:39;1.98;;;0.80;;
9815;SDS011;4947;44.526;11.360;2022-09-29T12:51:12;2.60;;;0.70;;
9815;SDS011;4947;44.526;11.360;2022-09-29T12:53:50;1.50;;;0.90;;
9815;SDS011;4947;44.526;11.360;2022-09-29T12:56:26;1.17;;;0.75;;
9815;SDS011;4947;44.526;11.360;2022-09-29T12:58:58;1.15;;;0.98;;
9815;SDS011;4947;44.526;11.360;2022-09-29T13:01:32;1.40;;;0.90;;
9815;SDS011;4947;44.526;11.360;2022-09-29T13:04:22;4.80;;;1.00;;
9815;SDS011;4947;44.526;11.360;2022-09-29T13:07:25;2.33;;;0.90;;
9815;SDS011;4947;44.526;11.360;2022-09-29T13:16:21;9.18;;;1.50;;
9815;SDS011;4947;44.526;11.360;2022-09-29T13:22:04;2.70;;;0.73;;
9815;SDS011;4947;44.526;11.360;2022-09-29T13:24:53;1.48;;;0.70;;
9815;SDS011;4947;44.526;11.360;2022-09-29T13:27:30;2.83;;;1.00;;
9815;SDS011;4947;44.526;11.360;2022-09-29T13:30:04;2.13;;;0.98;;
9815;SDS011;4947;44.526;11.360;2022-09-29T13:32:43;1.95;;;0.65;;
9815;SDS011;4947;44.526;11.360;2022-09-29T13:35:16;2.35;;;0.88;;
9815;SDS011;4947;44.526;11.360;2022-09-29T13:37:50;1.17;;;0.63;;
9815;SDS011;4947;44.526;11.360;2022-09-29T13:40:20;5.60;;;1.02;;
9815;SDS011;4947;44.526;11.360;2022-09-29T13:42:55;2.63;;;0.70;;
9815;SDS011;4947;44.526;11.360;2022-09-29T13:51:44;3.00;;;1.08;;
9815;SDS011;4947;44.526;11.360;2022-09-29T13:54:21;2.42;;;0.80;;
9815;SDS011;4947;44.526;11.360;2022-09-29T14:03:04;1.67;;;0.82;;
9815;SDS011;4947;44.526;11.360;2022-09-29T14:05:50;1.02;;;0.65;;
9815;SDS011;4947;44.526;11.360;2022-09-29T14:08:30;0.50;;;0.50;;
9815;SDS011;4947;44.526;11.360;2022-09-29T14:11:11;5.07;;;1.40;;
9815;SDS011;4947;44.526;11.360;2022-09-29T14:13:45;3.47;;;1.10;;
9815;SDS011;4947;44.526;11.360;2022-09-29T14:19:19;1.70;;;1.00;;
9815;SDS011;4947;44.526;11.360;2022-09-29T14:31:15;3.28;;;1.02;;
9815;SDS011;4947;44.526;11.360;2022-09-29T14:33:46;2.28;;;0.80;;
9815;SDS011;4947;44.526;11.360;2022-09-29T14:36:18;3.00;;;1.10;;
9815;SDS011;4947;44.526;11.360;2022-09-29T14:38:48;2.35;;;0.80;;
9815;SDS011;4947;44.526;11.360;2022-09-29T14:44:05;5.78;;;1.10;;
9815;SDS011;4947;44.526;11.360;2022-09-29T14:46:39;1.25;;;0.77;;
9815;SDS011;4947;44.526;11.360;2022-09-29T14:49:59;4.80;;;0.90;;
9815;SDS011;4947;44.526;11.360;2022-09-29T14:53:17;2.85;;;1.20;;
9815;SDS011;4947;44.526;11.360;2022-09-29T14:55:58;2.30;;;1.08;;
9815;SDS011;4947;44.526;11.360;2022-09-29T14:58:40;6.20;;;1.25;;
9815;SDS011;4947;44.526;11.360;2022-09-29T15:01:24;2.47;;;0.90;;
9815;SDS011;4947;44.526;11.360;2022-09-29T15:03:53;6.18;;;0.90;;
9815;SDS011;4947;44.526;11.360;2022-09-29T15:06:23;3.30;;;1.20;;
9815;SDS011;4947;44.526;11.360;2022-09-29T15:08:54;3.55;;;0.88;;
9815;SDS011;4947;44.526;11.360;2022-09-29T15:11:31;6.38;;;1.30;;
9815;SDS011;4947;44.526;11.360;2022-09-29T15:14:15;2.30;;;1.00;;
9815;SDS011;4947;44.526;11.360;2022-09-29T15:16:48;1.65;;;0.80;;
9815;SDS011;4947;44.526;11.360;2022-09-29T15:19:29;1.00;;;0.70;;
9815;SDS011;4947;44.526;11.360;2022-09-29T15:25:24;4.80;;;0.80;;
9815;SDS011;4947;44.526;11.360;2022-09-29T15:27:54;1.70;;;0.70;;
9815;SDS011;4947;44.526;11.360;2022-09-29T15:30:26;9.30;;;1.15;;
9815;SDS011;4947;44.526;11.360;2022-09-29T15:33:02;3.15;;;1.10;;
9815;SDS011;4947;44.526;11.360;2022-09-29T15:35:43;3.38;;;0.90;;
9815;SDS011;4947;44.526;11.360;2022-09-29T15:38:16;3.08;;;1.30;;
9815;SDS011;4947;44.526;11.360;2022-09-29T15:40:57;4.07;;;1.20;;
9815;SDS011;4947;44.526;11.360;2022-09-29T15:43:28;2.88;;;1.02;;
9815;SDS011;4947;44.526;11.360;2022-09-29T15:46:00;3.22;;;0.95;;
9815;SDS011;4947;44.526;11.360;2022-09-29T15:48:38;1.20;;;0.75;;
9815;SDS011;4947;44.526;11.360;2022-09-29T15:51:08;2.38;;;1.20;;
9815;SDS011;4947;44.526;11.360;2022-09-29T15:53:42;1.90;;;0.88;;
9815;SDS011;4947;44.526;11.360;2022-09-29T15:56:10;3.45;;;1.33;;
9815;SDS011;4947;44.526;11.360;2022-09-29T15:58:42;3.17;;;1.23;;
9815;SDS011;4947;44.526;11.360;2022-09-29T16:01:13;4.10;;;1.20;;
9815;SDS011;4947;44.526;11.360;2022-09-29T16:03:43;2.10;;;1.08;;
9815;SDS011;4947;44.526;11.360;2022-09-29T16:06:17;4.03;;;1.00;;
9815;SDS011;4947;44.526;11.360;2022-09-29T16:08:49;4.47;;;1.20;;
9815;SDS011;4947;44.526;11.360;2022-09-29T16:11:21;2.90;;;1.00;;
9815;SDS011;4947;44.526;11.360;2022-09-29T16:13:52;3.33;;;1.13;;
9815;SDS011;4947;44.526;11.360;2022-09-29T16:16:30;1.88;;;0.90;;
9815;SDS011;4947;44.526;11.360;2022-09-29T16:19:01;4.40;;;1.20;;
9815;SDS011;4947;44.526;11.360;2022-09-29T16:21:34;3.10;;;1.10;;
9815;SDS011;4947;44.526;11.360;2022-09-29T16:24:04;2.00;;;1.02;;
9815;SDS011;4947;44.526;11.360;2022-09-29T16:26:37;4.95;;;1.27;;
9815;SDS011;4947;44.526;11.360;2022-09-29T16:38:07;4.03;;;1.20;;
9815;SDS011;4947;44.526;11.360;2022-09-29T16:40:37;7.40;;;1.35;;
9815;SDS011;4947;44.526;11.360;2022-09-29T16:43:13;2.35;;;1.20;;
9815;SDS011;4947;44.526;11.360;2022-09-29T16:45:49;3.33;;;1.40;;